Boise, ID

12:09 AM MST on January 31, 2015 (GMT -0700)
Boulder Creek Subdivision | Change Station
CLOSE
Current Station
Personal Weather Station
Location: Boise, ID
Elevation: 2687 ft
Nearby Weather Stations

Elev 2687 ft 43.58 °N, 116.32 °W | Updated 2 minutes ago

Clear
Clear
26.2 °F
Feels Like 26 °F
N
0.0
Wind Variable Wind from SE
Gusts 0.0 mph

Today
High -- | Low -- °F
--% Chance of Precip.
Yesterday
High -- | Low -- °F
Precip. -- in
8:02 AM 5:54 PM
Waxing Gibbous, 88% visible
Pressure 30.22 in
Visibility 9.0 miles
Clouds Clear
Windchill 26 °F
Dew Point 20 °F
Humidity 77%
Rainfall 0.00 in
Snow Depth Not available.
UV 0 out of 12
Pollen .30 out of 12
Air Quality Not available.
Flu Activity Not available.
METAR KBOI 310653Z 00000KT 9SM CLR M02/M04 A3016 RMK AO2 SLP231 T10171039 400721022

More Conditions Fewer Conditions

Pressure 30.22 in
Visibility 9.0 miles
Clouds Clear
Windchill 26 °F
Dew Point 20 °F
Humidity 77%
Rainfall 0.00 in
Snow Depth Not available.
UV 0 out of 12
Pollen .30 out of 12
Air Quality Not available.
Flu Activity Not available.
METAR KBOI 310653Z 00000KT 9SM CLR M02/M04 A3016 RMK AO2 SLP231 T10171039 400721022

More Conditions Fewer Conditions

10-Day Weather Forecast

Almanac

Astronomy

Jan. 31, 2015 Rise Set
Actual Time
Civil Twilight
Nautical Twilight
Astronomical Twilight
Moon
Length of Visible Light
Length of Day
Tomorrow will be .
, % of the Moon is Illuminated

Today's Extremes

State Highs State Lows

Community

WunderPhotos

Upload Photos

1,792,014 photos uploaded!

WunderBlogs® & News

Nearby

Air Quality

  Air Quality AQ Index Pollutant
Not available.

Snow Depth

Station Depth Elevation

Earthquake Activity

City Distance Mag. Time & Date
Minimum magnitude displayed is 2.5.

Coastal Water Temperatures

Place Temperature

Nearby Weather Stations